Dow City, IA (51528)

7:23 PM CDT on April 01, 2015 (GMT -0500)
Denison Municipal | | Change Station
CLOSE
Current Station
Airport
Location: Denison,
Elevation: 1273 ft
Nearby Weather Stations

Elev 1273 ft 41.98 °N, 95.38 °W | Updated 8 minutes ago

Clear
Clear
77 °F
Feels Like 77 °F
N
21
Wind Variable Wind from South
Gusts 30 mph

Today
High -- | Low -- °F
--% Chance of Precip.
Yesterday
High -- | Low -- °F
Precip. -- in
7:05 AM 7:47 PM
Waxing Gibbous, 94% visible
Pressure 29.53 in
Visibility 10.0 miles
Clouds Clear
Dew Point 46 °F
Humidity 34%
Rainfall 0.00 in
Snow Depth Not available.
UV 0 out of 12
Pollen 9.20 out of 12
Air Quality Not available.
Flu Activity Not available.
METAR KDNS 020015Z AUTO 18018G26KT 10SM CLR 25/08 A2953 RMK AO2

More Conditions Fewer Conditions

Pressure 29.53 in
Visibility 10.0 miles
Clouds Clear
Dew Point 46 °F
Humidity 34%
Rainfall 0.00 in
Snow Depth Not available.
UV 0 out of 12
Pollen 9.20 out of 12
Air Quality Not available.
Flu Activity Not available.
METAR KDNS 020015Z AUTO 18018G26KT 10SM CLR 25/08 A2953 RMK AO2

More Conditions Fewer Conditions

10-Day Weather Forecast

Almanac

Astronomy

Apr. 01, 2015 Rise Set
Actual Time
Civil Twilight
Nautical Twilight
Astronomical Twilight
Moon
Length of Visible Light
Length of Day
Tomorrow will be .
, % of the Moon is Illuminated

Today's Extremes

State Highs State Lows

Community

WunderPhotos

Upload Photos

1,810,130 photos uploaded!

WunderBlogs® & News

Nearby

Air Quality

  Air Quality AQ Index Pollutant
Not available.

Snow Depth

Station Depth Elevation

Earthquake Activity

City Distance Mag. Time & Date
Minimum magnitude displayed is 2.5.

Coastal Water Temperatures

Place Temperature

Stations

Nearby Weather Stations

Station Location Temp. Windchill Dew Point Humidity Wind Precip. Elev Updated Type
                   
Severe Thunderstorm Watch
Statement as of 7:03 PM CDT on April 01, 2015

Severe Thunderstorm Watch 15 remains in effect until 100 am CDT
for the following locations


IA
. Iowa counties included are

Audubon Buena Vista Calhoun
Carroll Cherokee Clay
Crawford Harrison Ida
Monona O'Brien Palo Alto
Plymouth Pocahontas Pottawattamie
SAC Shelby Sioux
Woodbury